Japan Airlines Virtual Airport Information Service

Sapporo New Chitose Airport

ICAO: RJCC Country: Japan
Latitude: 42.7752 Longitude: 141.692
Latest Arrival : ANA73 (RJTT-RJCC) Latest Departure : ANA1693 (RJCC-ROAH)


WX CaptureLIVE
Data provided by noaa.gov | Fetched at 15:13:39

METAR : RJCC 281430Z 11003KT 9999 FEW030 SCT100 BKN130 M07/M09 Q1006 RMK 1CU030 3AC100 7AC130 A2971

TAF : RJCC 281107Z 2812/2918 34005KT 9999 FEW008 BKN015 BECMG 2813/2815 15018KT TEMPO 2821/2900 15020G30KT 2000 -SHSN FEW005 BKN008 TEMPO 2900/2906 15022G32KT 0500 SHSN VV003 TEMPO 2906/2912 2000 -SHSN FEW005 BKN008 BECMG 2912/2915 33013KT


Runway Data for RJCC
Data provided by openaviationdata.com

Runway ID Mag Var Hdg Length Elevation Surface ILS Freq ILS Id ILS Slope
01L -9 9851 ft 70 ft Asphalt 110.9 ICN 3
01R -9 9845 ft 70 ft Asphalt 110.75 ICH 3
19L -9 181° 9845 ft 70 ft Asphalt -- -- --
19R -9 181° 9851 ft 70 ft Asphalt 111.5 ICS 3

Sapporo New Chitose Airport, Japan
Use only for reference purposes



Not for navigational purposes.